Time;durP1;ratioP1;P1;durP2;ratioP2;P2;SDS_P1;SDS_P2;PMS_P1;PMS_P2;Temp;Humidity;BMP_temperature;BMP_pressure;BME280_temperature;BME280_humidity;BME280_pressure;Samples;Min_cycle;Max_cycle;Signal;HPM_P1;HPM_P2
2021/11/29 00:00:25;;;;;;;69.97;11.77;;;0.00;95.60;;;;;;5073450;28;20195;-85
2021/11/29 00:02:55;;;;;;;56.33;13.37;;;0.10;95.70;;;;;;5074336;28;20682;-87
2021/11/29 00:05:23;;;;;;;30.80;11.73;;;0.10;95.70;;;;;;5084218;28;20195;-86
2021/11/29 00:07:48;;;;;;;31.70;11.53;;;0.20;95.70;;;;;;5080379;28;20175;-85
2021/11/29 00:10:14;;;;;;;50.33;12.97;;;0.20;95.70;;;;;;5080737;28;20696;-85
2021/11/29 00:12:40;;;;;;;34.10;12.27;;;0.10;95.60;;;;;;5078466;28;20581;-85
2021/11/29 00:15:07;;;;;;;42.80;12.87;;;0.10;95.70;;;;;;5079413;28;20664;-86
2021/11/29 00:17:33;;;;;;;25.00;10.77;;;0.10;95.60;;;;;;5078672;28;20667;-85
2021/11/29 00:19:59;;;;;;;30.70;11.60;;;0.00;95.60;;;;;;5078553;28;20251;-86
2021/11/29 00:22:25;;;;;;;34.43;14.43;;;0.00;95.60;;;;;;5078622;28;20204;-85
2021/11/29 00:24:50;;;;;;;24.00;11.70;;;0.00;95.60;;;;;;5078757;28;20177;-85
2021/11/29 00:27:16;;;;;;;18.33;10.63;;;0.10;95.70;;;;;;5079935;28;20168;-85
2021/11/29 00:29:44;;;;;;;49.20;11.97;;;0.10;95.70;;;;;;5079722;28;20170;-86
2021/11/29 00:32:10;;;;;;;38.80;10.43;;;0.20;95.70;;;;;;5078353;28;20193;-86
2021/11/29 00:34:35;;;;;;;18.40;11.23;;;0.10;95.60;;;;;;5078447;28;20326;-86
2021/11/29 00:37:01;;;;;;;15.27;10.00;;;0.10;95.70;;;;;;5079276;28;20502;-86
2021/11/29 00:39:27;;;;;;;39.90;11.90;;;0.20;95.70;;;;;;5078369;28;20173;-86
2021/11/29 00:41:52;;;;;;;15.40;10.57;;;0.30;95.70;;;;;;5078199;28;20220;-86
2021/11/29 00:44:18;;;;;;;55.87;10.17;;;0.30;95.70;;;;;;5078423;28;20528;-86
2021/11/29 00:46:44;;;;;;;33.17;10.17;;;0.20;95.60;;;;;;5079664;28;20172;-86
2021/11/29 00:49:10;;;;;;;20.67;10.13;;;0.10;95.60;;;;;;5079820;28;20178;-86
2021/11/29 00:51:35;;;;;;;25.10;10.00;;;0.20;95.60;;;;;;5079615;28;20193;-86
2021/11/29 00:54:01;;;;;;;21.27;10.27;;;0.20;95.60;;;;;;5078444;28;20213;-86
2021/11/29 00:56:27;;;;;;;35.57;10.83;;;0.20;95.60;;;;;;5078256;28;20177;-86
2021/11/29 00:58:53;;;;;;;39.30;11.20;;;0.30;95.60;;;;;;5079657;28;20178;-86
2021/11/29 01:01:19;;;;;;;23.13;10.10;;;0.10;95.50;;;;;;5078067;28;20204;-86
2021/11/29 01:03:45;;;;;;;17.47;9.93;;;0.00;95.40;;;;;;5079712;28;20178;-86
2021/11/29 01:06:10;;;;;;;34.97;9.87;;;0.00;95.50;;;;;;5078287;28;20224;-86
2021/11/29 01:08:36;;;;;;;51.90;11.50;;;0.00;95.50;;;;;;5078323;28;20664;-86
2021/11/29 01:11:04;;;;;;;22.63;10.73;;;0.00;95.40;;;;;;5078061;28;20264;-86
2021/11/29 01:13:30;;;;;;;15.00;10.50;;;0.00;95.40;;;;;;5078098;28;20217;-86
2021/11/29 01:15:56;;;;;;;17.63;11.30;;;0.10;95.50;;;;;;5074488;28;20583;-86
2021/11/29 01:18:22;;;;;;;36.07;10.30;;;0.10;95.50;;;;;;5074857;28;20180;-86
2021/11/29 01:20:48;;;;;;;15.37;10.97;;;0.10;95.50;;;;;;5076442;28;20196;-86
2021/11/29 01:23:15;;;;;;;15.87;10.77;;;0.10;95.50;;;;;;5076130;28;20196;-86
2021/11/29 01:25:42;;;;;;;24.43;9.13;;;0.20;95.50;;;;;;5074884;28;20646;-86
2021/11/29 01:28:07;;;;;;;17.07;10.27;;;0.00;95.40;;;;;;5074631;28;20329;-86
2021/11/29 01:30:33;;;;;;;12.07;9.37;;;0.00;95.30;;;;;;5074755;28;20262;-86
2021/11/29 01:33:00;;;;;;;15.27;9.33;;;0.00;95.30;;;;;;5074607;28;20207;-86
2021/11/29 01:35:26;;;;;;;32.60;9.57;;;0.00;95.30;;;;;;5074477;28;20238;-85
2021/11/29 01:37:52;;;;;;;20.97;9.27;;;0.00;95.30;;;;;;5074495;28;20177;-86
2021/11/29 01:40:18;;;;;;;13.30;8.40;;;0.00;95.30;;;;;;5074451;28;20179;-86
2021/11/29 01:43:11;;;;;;;9.67;7.37;;;0.00;95.30;;;;;;5074580;28;20192;-86
2021/11/29 01:45:43;;;;;;;12.93;8.17;;;0.00;95.30;;;;;;5074486;28;20165;-86
2021/11/29 01:48:10;;;;;;;7.80;6.13;;;0.00;95.20;;;;;;5075706;28;20187;-86
2021/11/29 01:50:38;;;;;;;9.77;6.50;;;0.00;95.20;;;;;;5075700;28;20170;-86
2021/11/29 01:53:05;;;;;;;7.87;6.70;;;0.00;95.20;;;;;;5075289;28;20206;-86
2021/11/29 01:55:31;;;;;;;7.67;6.17;;;0.00;95.20;;;;;;5074354;28;20266;-85
2021/11/29 01:57:58;;;;;;;9.37;6.83;;;0.00;95.10;;;;;;5074014;28;20204;-85
2021/11/29 02:00:29;;;;;;;8.57;5.30;;;0.00;95.10;;;;;;5074140;28;20295;-85
2021/11/29 02:02:56;;;;;;;5.97;5.13;;;0.00;95.10;;;;;;5075286;28;20218;-85
2021/11/29 02:05:23;;;;;;;36.17;5.97;;;0.00;95.00;;;;;;5074174;28;20228;-86
2021/11/29 02:07:49;;;;;;;7.30;5.50;;;-0.10;94.90;;;;;;5074040;28;20185;-85
2021/11/29 02:10:17;;;;;;;24.07;5.93;;;-0.10;94.90;;;;;;5073993;28;20171;-86
2021/11/29 02:12:43;;;;;;;13.73;6.27;;;-0.10;94.90;;;;;;5073666;28;20211;-86
2021/11/29 02:15:11;;;;;;;14.40;6.40;;;-0.10;94.90;;;;;;5073803;28;20172;-85
2021/11/29 02:17:37;;;;;;;15.97;6.63;;;-0.20;94.90;;;;;;5074999;28;20664;-86
2021/11/29 02:20:04;;;;;;;7.47;6.43;;;-0.20;94.80;;;;;;5075078;28;20174;-86
2021/11/29 02:22:30;;;;;;;17.00;7.03;;;-0.20;94.80;;;;;;5074893;28;20244;-85
2021/11/29 02:24:56;;;;;;;49.57;7.17;;;-0.20;94.80;;;;;;5074934;28;20244;-85
2021/11/29 02:27:21;;;;;;;10.53;7.10;;;-0.10;94.80;;;;;;5072403;28;20613;-86
2021/11/29 02:29:54;;;;;;;42.73;7.90;;;-0.20;94.70;;;;;;5073468;28;20231;-85
2021/11/29 02:32:20;;;;;;;56.30;7.57;;;-0.20;94.80;;;;;;5073275;28;20570;-85
2021/11/29 02:34:47;;;;;;;19.37;7.30;;;-0.10;94.80;;;;;;5074611;28;20255;-85
2021/11/29 02:37:13;;;;;;;11.40;7.10;;;-0.10;94.80;;;;;;5073316;28;20178;-85
2021/11/29 02:39:41;;;;;;;8.23;6.87;;;-0.10;94.70;;;;;;5073238;28;20593;-85
2021/11/29 02:42:08;;;;;;;9.67;7.03;;;0.00;94.70;;;;;;5074207;28;20702;-85
2021/11/29 02:44:34;;;;;;;10.40;7.73;;;0.00;94.80;;;;;;5073110;28;20176;-86
2021/11/29 02:47:01;;;;;;;14.93;7.47;;;0.00;94.80;;;;;;5074329;28;20257;-85
2021/11/29 02:49:27;;;;;;;17.77;6.73;;;0.00;94.80;;;;;;5072923;28;20621;-85
2021/11/29 02:52:01;;;;;;;40.60;10.30;;;0.00;94.70;;;;;;5072772;28;20295;-85
2021/11/29 02:54:30;;;;;;;30.13;7.37;;;0.00;94.60;;;;;;5073021;28;20163;-85
2021/11/29 02:56:59;;;;;;;8.93;6.93;;;-0.10;94.50;;;;;;5074066;28;20192;-85
2021/11/29 02:59:28;;;;;;;64.60;8.53;;;-0.10;94.60;;;;;;5072843;28;20173;-86
2021/11/29 03:01:57;;;;;;;29.57;7.73;;;-0.10;94.50;;;;;;5073983;28;20200;-85
2021/11/29 03:04:25;;;;;;;17.87;7.33;;;-0.10;94.50;;;;;;5074112;28;20644;-86
2021/11/29 03:06:51;;;;;;;22.77;8.30;;;-0.10;94.50;;;;;;5074415;28;20165;-85
2021/11/29 03:09:17;;;;;;;16.70;8.13;;;0.00;94.60;;;;;;5073934;28;20297;-85
2021/11/29 03:11:43;;;;;;;39.43;8.43;;;0.00;94.60;;;;;;5073631;28;20212;-85
2021/11/29 03:14:09;;;;;;;64.70;9.50;;;0.00;94.50;;;;;;5072572;28;20241;-86
2021/11/29 03:16:36;;;;;;;68.63;10.57;;;0.00;94.50;;;;;;5073826;28;20204;-85
2021/11/29 03:19:02;;;;;;;55.30;9.60;;;-0.10;94.50;;;;;;5072427;28;20171;-85
2021/11/29 03:21:28;;;;;;;12.17;9.27;;;-0.10;94.50;;;;;;5072385;28;20638;-85
2021/11/29 03:23:57;;;;;;;94.20;10.70;;;0.00;94.60;;;;;;5073681;28;20208;-85
2021/11/29 03:26:24;;;;;;;19.60;8.70;;;0.00;94.70;;;;;;5072372;28;20172;-85
2021/11/29 03:28:55;;;;;;;41.83;8.83;;;0.00;94.60;;;;;;5072330;28;20264;-85
2021/11/29 03:31:25;;;;;;;23.03;8.50;;;0.00;94.70;;;;;;5073458;28;20197;-85
2021/11/29 03:33:55;;;;;;;36.07;9.13;;;0.00;94.70;;;;;;5073559;28;20624;-85
2021/11/29 03:36:21;;;;;;;15.70;9.17;;;0.00;94.80;;;;;;5072192;28;20178;-85
2021/11/29 03:38:48;;;;;;;19.57;9.00;;;0.00;94.70;;;;;;5073169;28;20175;-85
2021/11/29 03:41:13;;;;;;;14.90;9.13;;;0.00;94.70;;;;;;5073263;28;20608;-85
2021/11/29 03:43:39;;;;;;;39.33;9.27;;;0.00;94.70;;;;;;5072155;28;20648;-85
2021/11/29 03:46:06;;;;;;;17.93;9.33;;;0.00;94.70;;;;;;5072083;28;20210;-85
2021/11/29 03:48:31;;;;;;;12.97;8.93;;;0.00;94.70;;;;;;5073412;28;20172;-85
2021/11/29 03:50:57;;;;;;;13.77;9.70;;;0.00;94.70;;;;;;5073398;28;20166;-85
2021/11/29 03:53:23;;;;;;;13.07;9.43;;;0.00;94.70;;;;;;5071924;28;20191;-85
2021/11/29 03:55:49;;;;;;;14.80;9.10;;;0.00;94.80;;;;;;5073285;28;20706;-85
2021/11/29 03:58:14;;;;;;;12.60;9.00;;;0.00;94.70;;;;;;5071997;28;20662;-85
2021/11/29 04:00:42;;;;;;;12.23;8.80;;;0.00;94.70;;;;;;5071915;28;20570;-85
2021/11/29 04:03:08;;;;;;;11.17;8.70;;;0.00;94.70;;;;;;5073359;28;20618;-85
2021/11/29 04:05:34;;;;;;;12.83;9.47;;;0.10;94.60;;;;;;5072015;28;20178;-85
2021/11/29 04:07:59;;;;;;;13.43;9.03;;;0.10;94.70;;;;;;5073242;28;20173;-86
2021/11/29 04:10:26;;;;;;;12.50;9.03;;;0.10;94.70;;;;;;5073244;28;20660;-85
2021/11/29 04:12:51;;;;;;;14.10;9.40;;;0.20;94.70;;;;;;5071904;28;20559;-85
2021/11/29 04:15:17;;;;;;;18.53;9.97;;;0.20;94.60;;;;;;5072101;28;20179;-85
2021/11/29 04:17:43;;;;;;;13.77;9.50;;;0.10;94.60;;;;;;5073303;28;20255;-85
2021/11/29 04:20:13;;;;;;;14.33;10.43;;;0.10;94.60;;;;;;5071987;28;20230;-85
2021/11/29 04:22:39;;;;;;;14.83;9.80;;;0.10;94.60;;;;;;5072051;28;20206;-85
2021/11/29 04:25:08;;;;;;;12.37;8.93;;;0.10;94.60;;;;;;5072475;28;20668;-85
2021/11/29 04:27:35;;;;;;;15.07;9.73;;;0.20;94.70;;;;;;5072048;28;20169;-85
2021/11/29 04:30:06;;;;;;;13.03;8.93;;;0.20;94.70;;;;;;5071917;28;20170;-85
2021/11/29 04:32:32;;;;;;;11.47;8.60;;;0.20;94.70;;;;;;5071845;28;20191;-85
2021/11/29 04:34:57;;;;;;;12.30;8.73;;;0.20;94.70;;;;;;5072966;28;20203;-85
2021/11/29 04:37:23;;;;;;;12.17;9.20;;;0.20;94.70;;;;;;5071745;28;20221;-85
2021/11/29 04:39:50;;;;;;;11.83;8.80;;;0.20;94.70;;;;;;5072830;28;20178;-85
2021/11/29 04:42:15;;;;;;;14.17;9.57;;;0.20;94.70;;;;;;5071354;28;20219;-85
2021/11/29 04:44:41;;;;;;;15.77;10.33;;;0.10;94.70;;;;;;5072692;28;20174;-85
2021/11/29 04:47:07;;;;;;;12.47;8.90;;;0.20;94.70;;;;;;5072689;28;20171;-85
2021/11/29 04:49:32;;;;;;;15.80;10.33;;;0.10;94.70;;;;;;5071858;28;20179;-85
2021/11/29 04:51:58;;;;;;;15.83;10.17;;;0.20;94.80;;;;;;5075175;28;20197;-85
2021/11/29 04:54:24;;;;;;;14.50;10.13;;;0.30;94.80;;;;;;5076453;28;20260;-85
2021/11/29 04:56:50;;;;;;;18.37;11.43;;;0.30;94.80;;;;;;5076346;28;20544;-85
2021/11/29 04:59:15;;;;;;;20.47;12.17;;;0.30;94.80;;;;;;5075420;28;20182;-85
2021/11/29 05:01:41;;;;;;;21.30;12.03;;;0.40;94.80;;;;;;5076466;28;20211;-86
2021/11/29 05:04:07;;;;;;;19.27;12.17;;;0.50;94.80;;;;;;5076361;28;20163;-85
2021/11/29 05:06:36;;;;;;;18.90;12.37;;;0.50;94.80;;;;;;5076172;28;20244;-85
2021/11/29 05:09:06;;;;;;;17.60;11.03;;;0.50;94.80;;;;;;5074838;28;20174;-85
2021/11/29 05:11:33;;;;;;;16.00;10.43;;;0.50;94.80;;;;;;5075057;28;20222;-86
2021/11/29 05:13:58;;;;;;;19.63;12.47;;;0.50;94.80;;;;;;5074885;28;20556;-85
2021/11/29 05:16:24;;;;;;;20.63;12.77;;;0.60;94.80;;;;;;5074733;28;20190;-85
2021/11/29 05:18:50;;;;;;;23.00;13.57;;;0.50;94.80;;;;;;5074760;28;20205;-85
2021/11/29 05:21:15;;;;;;;23.37;14.07;;;0.60;94.80;;;;;;5075862;28;20201;-85
2021/11/29 05:23:41;;;;;;;22.03;14.10;;;0.60;94.80;;;;;;5074581;28;20308;-85
2021/11/29 05:26:07;;;;;;;21.90;13.43;;;0.60;94.70;;;;;;5076125;28;20206;-85
2021/11/29 05:28:33;;;;;;;21.10;13.33;;;0.50;94.80;;;;;;5074523;28;20229;-85
2021/11/29 05:30:58;;;;;;;25.67;16.17;;;0.60;94.80;;;;;;5074604;28;20183;-85
2021/11/29 05:33:24;;;;;;;23.07;14.63;;;0.60;94.80;;;;;;5075642;28;20194;-85
2021/11/29 05:35:49;;;;;;;28.27;15.33;;;0.70;94.80;;;;;;5075745;28;20608;-86
2021/11/29 05:38:15;;;;;;;25.23;15.80;;;0.70;94.80;;;;;;5075714;28;20184;-85
2021/11/29 05:40:41;;;;;;;23.93;14.63;;;0.70;94.70;;;;;;5075503;28;20198;-86
2021/11/29 05:43:06;;;;;;;24.60;15.60;;;0.70;94.80;;;;;;5075551;28;20189;-85
2021/11/29 05:45:32;;;;;;;26.70;15.80;;;0.70;94.70;;;;;;5074283;28;20171;-85
2021/11/29 05:47:58;;;;;;;23.17;15.87;;;0.80;94.70;;;;;;5075722;28;20199;-85
2021/11/29 05:50:24;;;;;;;22.40;15.20;;;0.70;94.70;;;;;;5074359;28;20627;-86
2021/11/29 05:52:50;;;;;;;26.07;16.53;;;0.70;94.60;;;;;;5074054;28;20194;-85
2021/11/29 05:55:16;;;;;;;23.40;15.07;;;0.60;94.60;;;;;;5074052;28;20179;-86
2021/11/29 05:57:43;;;;;;;23.83;15.97;;;0.70;94.60;;;;;;5075287;28;20669;-85
2021/11/29 06:00:12;;;;;;;25.00;15.87;;;0.60;94.60;;;;;;5074993;28;20257;-86
2021/11/29 06:02:39;;;;;;;22.53;15.87;;;0.60;94.60;;;;;;5074996;28;20209;-86
2021/11/29 06:05:08;;;;;;;24.73;15.40;;;0.70;94.60;;;;;;5073795;28;20176;-85
2021/11/29 06:07:35;;;;;;;23.13;15.07;;;0.70;94.50;;;;;;5073751;28;20184;-85
2021/11/29 06:10:00;;;;;;;24.47;15.60;;;0.70;94.60;;;;;;5073672;28;20181;-85
2021/11/29 06:12:26;;;;;;;24.07;15.80;;;0.70;94.60;;;;;;5073487;28;20215;-85
2021/11/29 06:14:51;;;;;;;24.90;16.40;;;0.70;94.60;;;;;;5074912;28;20261;-85
2021/11/29 06:17:17;;;;;;;23.63;15.57;;;0.80;94.60;;;;;;5073656;28;20599;-86
2021/11/29 06:19:43;;;;;;;27.03;16.70;;;0.80;94.50;;;;;;5074789;28;20548;-86
2021/11/29 06:22:08;;;;;;;27.77;17.63;;;0.80;94.50;;;;;;5073324;28;20267;-85
2021/11/29 06:24:34;;;;;;;26.20;16.37;;;0.80;94.40;;;;;;5074967;28;20228;-85
2021/11/29 06:27:00;;;;;;;25.97;16.03;;;0.80;94.50;;;;;;5074633;28;20183;-85
2021/11/29 06:29:25;;;;;;;27.63;17.93;;;0.80;94.40;;;;;;5074496;28;20175;-86
2021/11/29 06:31:51;;;;;;;24.13;16.00;;;0.80;94.40;;;;;;5074409;28;20688;-86
2021/11/29 06:34:16;;;;;;;27.97;17.13;;;0.80;94.40;;;;;;5074460;28;20246;-85
2021/11/29 06:36:42;;;;;;;25.70;16.60;;;0.80;94.40;;;;;;5073207;28;20597;-85
2021/11/29 06:39:09;;;;;;;29.07;17.57;;;0.90;94.40;;;;;;5074371;28;20695;-86
2021/11/29 06:41:34;;;;;;;27.90;16.57;;;0.90;94.40;;;;;;5073247;28;20216;-86
2021/11/29 06:44:00;;;;;;;33.37;18.17;;;0.90;94.40;;;;;;5074296;28;20174;-85
2021/11/29 06:46:26;;;;;;;27.70;17.63;;;0.90;94.40;;;;;;5072906;28;20756;-86
2021/11/29 06:48:52;;;;;;;33.07;18.90;;;0.80;94.40;;;;;;5072952;28;20193;-86
2021/11/29 06:51:18;;;;;;;29.53;17.63;;;0.90;94.40;;;;;;5074051;28;20180;-86
2021/11/29 06:53:44;;;;;;;31.60;18.47;;;0.90;94.50;;;;;;5072932;28;20182;-86
2021/11/29 06:56:10;;;;;;;32.60;19.53;;;0.90;94.40;;;;;;5072772;28;20670;-86
2021/11/29 06:58:37;;;;;;;34.37;19.43;;;1.00;94.50;;;;;;5072854;28;20185;-86
2021/11/29 07:01:04;;;;;;;35.93;20.00;;;0.90;94.50;;;;;;5072705;28;20207;-86
2021/11/29 07:03:30;;;;;;;35.80;20.17;;;1.00;94.50;;;;;;5073682;28;20277;-86
2021/11/29 07:05:56;;;;;;;36.13;20.90;;;1.00;94.50;;;;;;5072685;28;20183;-86
2021/11/29 07:08:22;;;;;;;35.93;21.47;;;0.90;94.50;;;;;;5073973;28;20200;-86
2021/11/29 07:10:47;;;;;;;34.40;20.10;;;0.90;94.50;;;;;;5072502;28;20183;-85
2021/11/29 07:13:15;;;;;;;33.10;18.97;;;1.00;94.60;;;;;;5071848;28;20217;-86
2021/11/29 07:15:42;;;;;;;31.33;19.13;;;1.00;94.60;;;;;;5072464;28;20190;-86
2021/11/29 07:18:08;;;;;;;39.57;19.67;;;1.10;94.50;;;;;;5072362;28;20241;-86
2021/11/29 07:20:35;;;;;;;35.07;20.40;;;1.00;94.50;;;;;;5073515;28;20178;-86
2021/11/29 07:23:01;;;;;;;35.33;19.90;;;1.10;94.60;;;;;;5072208;28;20566;-86
2021/11/29 07:25:27;;;;;;;38.50;20.30;;;1.10;94.60;;;;;;5072353;28;20177;-86
2021/11/29 07:27:53;;;;;;;42.20;20.43;;;1.10;94.60;;;;;;5072318;28;20188;-86
2021/11/29 07:30:21;;;;;;;41.03;21.70;;;1.20;94.70;;;;;;5073510;28;20204;-86
2021/11/29 07:32:48;;;;;;;40.77;20.67;;;1.20;94.60;;;;;;5072242;28;20246;-86
2021/11/29 07:35:13;;;;;;;40.90;22.27;;;1.20;94.60;;;;;;5072314;28;20270;-86
2021/11/29 07:37:41;;;;;;;41.13;22.10;;;1.20;94.70;;;;;;5073457;28;20203;-86
2021/11/29 07:40:08;;;;;;;42.43;22.47;;;1.20;94.70;;;;;;5072087;28;20176;-86
2021/11/29 07:42:34;;;;;;;44.23;23.27;;;1.20;94.70;;;;;;5071980;28;20206;-86
2021/11/29 07:45:00;;;;;;;44.53;22.97;;;1.20;94.70;;;;;;5072206;28;20548;-86
2021/11/29 07:47:26;;;;;;;44.70;23.37;;;1.20;94.70;;;;;;5073934;28;20174;-86
2021/11/29 07:49:53;;;;;;;49.17;25.37;;;1.20;94.70;;;;;;5073588;28;20236;-86
2021/11/29 07:52:19;;;;;;;45.30;22.43;;;1.30;94.70;;;;;;5072362;28;20197;-86
2021/11/29 07:54:45;;;;;;;43.70;22.33;;;1.20;94.70;;;;;;5072205;28;20277;-86
2021/11/29 07:57:13;;;;;;;42.57;22.63;;;1.20;94.70;;;;;;5072148;28;20174;-86
2021/11/29 07:59:39;;;;;;;44.50;21.83;;;1.30;94.80;;;;;;5073279;28;20174;-86
2021/11/29 08:02:05;;;;;;;42.83;22.33;;;1.30;94.80;;;;;;5071828;28;20206;-86
2021/11/29 08:04:31;;;;;;;42.70;22.40;;;1.30;94.80;;;;;;5072052;28;20180;-86
2021/11/29 08:06:57;;;;;;;40.70;22.23;;;1.30;94.80;;;;;;5073225;28;20246;-86
2021/11/29 08:09:22;;;;;;;38.57;21.70;;;1.40;94.80;;;;;;5073392;28;20170;-86
2021/11/29 08:11:48;;;;;;;39.53;21.60;;;1.30;94.80;;;;;;5073117;28;20213;-86
2021/11/29 08:14:14;;;;;;;39.27;22.43;;;1.40;94.80;;;;;;5073224;28;20160;-86
2021/11/29 08:16:39;;;;;;;40.17;21.30;;;1.30;94.80;;;;;;5071805;28;20178;-86
2021/11/29 08:19:05;;;;;;;41.60;21.77;;;1.40;94.80;;;;;;5072286;28;20176;-86
2021/11/29 08:21:30;;;;;;;41.13;22.67;;;1.40;94.80;;;;;;5071682;28;20206;-86
2021/11/29 08:23:56;;;;;;;42.97;22.63;;;1.40;94.80;;;;;;5074135;28;20181;-86
2021/11/29 08:26:22;;;;;;;43.70;22.47;;;1.40;94.90;;;;;;5075872;28;20215;-86
2021/11/29 08:28:47;;;;;;;42.40;20.63;;;1.50;94.90;;;;;;5077209;28;20168;-86
2021/11/29 08:31:13;;;;;;;44.30;23.10;;;1.50;94.90;;;;;;5077155;28;20175;-85
2021/11/29 08:33:39;;;;;;;43.33;22.97;;;1.50;94.90;;;;;;5075761;28;20217;-86
2021/11/29 08:36:05;;;;;;;40.53;21.80;;;1.50;94.90;;;;;;5075544;28;20263;-86
2021/11/29 08:38:33;;;;;;;42.97;22.63;;;1.50;94.90;;;;;;5075661;28;20250;-86
2021/11/29 08:41:00;;;;;;;39.77;21.97;;;1.50;94.90;;;;;;5076865;28;20735;-86
2021/11/29 08:43:25;;;;;;;43.37;22.63;;;1.50;94.90;;;;;;5076750;28;20183;-87
2021/11/29 08:45:52;;;;;;;42.87;22.53;;;1.50;94.90;;;;;;5076696;28;20175;-86
2021/11/29 08:48:18;;;;;;;39.77;21.53;;;1.50;94.90;;;;;;5076689;28;20168;-86
2021/11/29 08:50:48;;;;;;;42.20;23.10;;;1.50;94.90;;;;;;5077110;28;20206;-87
2021/11/29 08:53:16;;;;;;;39.90;21.23;;;1.60;94.90;;;;;;5076501;28;20244;-88
2021/11/29 08:55:43;;;;;;;39.10;21.43;;;1.70;95.00;;;;;;5075289;28;20181;-87
2021/11/29 08:58:11;;;;;;;39.30;21.93;;;1.80;95.00;;;;;;5076508;28;20175;-87
2021/11/29 09:00:40;;;;;;;39.70;21.87;;;1.70;94.90;;;;;;5075830;28;20259;-87
2021/11/29 09:03:08;;;;;;;37.10;21.00;;;1.80;94.90;;;;;;5077197;28;20187;-87
2021/11/29 09:05:36;;;;;;;39.73;21.90;;;1.80;94.90;;;;;;5075785;28;20679;-86
2021/11/29 09:08:02;;;;;;;38.63;21.33;;;1.80;95.00;;;;;;5076923;28;20171;-87
2021/11/29 09:10:28;;;;;;;40.70;21.80;;;1.80;95.00;;;;;;5075748;28;20248;-86
2021/11/29 09:12:54;;;;;;;33.80;19.70;;;1.80;95.00;;;;;;5077056;28;20697;-86
2021/11/29 09:15:20;;;;;;;39.23;21.63;;;1.90;95.00;;;;;;5077103;28;20169;-87
2021/11/29 09:17:47;;;;;;;43.07;22.53;;;1.90;95.00;;;;;;5075793;28;20206;-86
2021/11/29 09:20:16;;;;;;;35.27;21.17;;;1.90;95.00;;;;;;5075435;28;20175;-87
2021/11/29 09:22:42;;;;;;;36.87;20.40;;;1.90;95.00;;;;;;5076411;28;20221;-87
2021/11/29 09:25:10;;;;;;;38.30;21.20;;;2.00;95.00;;;;;;5076564;28;20164;-87
2021/11/29 09:27:36;;;;;;;34.50;19.60;;;2.00;95.00;;;;;;5076326;28;20175;-87
2021/11/29 09:30:05;;;;;;;36.27;19.83;;;2.00;95.00;;;;;;5075215;28;20197;-88
2021/11/29 09:32:36;;;;;;;30.87;18.83;;;2.10;95.00;;;;;;5076118;28;20275;-87
2021/11/29 09:35:04;;;;;;;31.20;19.17;;;2.10;95.00;;;;;;5076075;28;20148;-87
2021/11/29 09:37:30;;;;;;;33.03;18.27;;;2.10;95.00;;;;;;5075997;28;20198;-87
2021/11/29 09:39:56;;;;;;;30.40;18.13;;;2.20;95.10;;;;;;5074807;28;20210;-87
2021/11/29 09:42:21;;;;;;;29.90;18.30;;;2.20;95.00;;;;;;5074781;28;20239;-88
2021/11/29 09:44:52;;;;;;;30.47;18.53;;;2.30;95.00;;;;;;5074686;28;20175;-87
2021/11/29 09:47:21;;;;;;;30.80;18.03;;;2.30;95.10;;;;;;5075996;28;20156;-86
2021/11/29 09:49:47;;;;;;;33.33;18.73;;;2.30;95.10;;;;;;5076061;28;20170;-85
2021/11/29 09:52:13;;;;;;;34.10;18.93;;;2.50;95.10;;;;;;5074237;28;20200;-86
2021/11/29 09:54:42;;;;;;;34.73;19.37;;;2.70;95.20;;;;;;5074220;28;20190;-86
2021/11/29 09:57:07;;;;;;;37.90;20.10;;;2.80;95.20;;;;;;5075450;28;20171;-86
2021/11/29 09:59:33;;;;;;;34.13;20.13;;;3.00;95.20;;;;;;5075384;28;20178;-86
2021/11/29 10:01:59;;;;;;;39.33;21.77;;;3.10;95.20;;;;;;5075104;28;20212;-86
2021/11/29 10:04:25;;;;;;;36.47;20.23;;;3.20;95.20;;;;;;5075306;28;20168;-86
2021/11/29 10:06:55;;;;;;;32.50;20.20;;;3.30;95.20;;;;;;5073949;28;20616;-86
2021/11/29 10:09:38;;;;;;;35.83;21.23;;;3.40;95.10;;;;;;5073959;28;20167;-86
2021/11/29 10:12:10;;;;;;;31.70;20.00;;;3.50;95.00;;;;;;5073709;28;20216;-86
2021/11/29 10:14:37;;;;;;;28.67;19.77;;;3.60;94.90;;;;;;5075320;28;20176;-86
2021/11/29 10:17:04;;;;;;;27.73;19.60;;;3.70;94.70;;;;;;5074998;28;20172;-86
2021/11/29 10:19:31;;;;;;;27.27;17.83;;;3.80;94.70;;;;;;5074877;28;20178;-86
2021/11/29 10:22:18;;;;;;;25.63;18.73;;;3.90;94.50;;;;;;5074897;28;20211;-86
2021/11/29 10:24:45;;;;;;;28.23;18.23;;;3.80;94.20;;;;;;5073330;28;20229;-86
2021/11/29 10:27:11;;;;;;;25.80;17.63;;;3.90;94.10;;;;;;5074725;28;20171;-86
2021/11/29 10:29:37;;;;;;;24.70;16.20;;;3.90;93.90;;;;;;5074761;28;20260;-86
2021/11/29 10:32:03;;;;;;;21.53;17.20;;;4.00;93.80;;;;;;5073313;28;20314;-86
2021/11/29 10:34:32;;;;;;;19.10;15.87;;;4.00;93.60;;;;;;5074605;28;20203;-87
2021/11/29 10:37:10;;;;;;;21.67;15.53;;;4.00;93.40;;;;;;5073322;28;20181;-86
2021/11/29 10:39:40;;;;;;;20.77;15.70;;;4.10;93.20;;;;;;5073264;28;20638;-87
2021/11/29 10:42:08;;;;;;;19.87;15.47;;;4.20;93.10;;;;;;5072880;28;20696;-87
2021/11/29 10:44:38;;;;;;;20.00;14.60;;;4.20;93.00;;;;;;5073216;28;20186;-86
2021/11/29 10:47:10;;;;;;;17.30;14.63;;;4.20;92.90;;;;;;5072314;28;20180;-87
2021/11/29 10:49:41;;;;;;;17.73;15.27;;;4.30;92.90;;;;;;5074344;28;20185;-86
2021/11/29 10:52:09;;;;;;;18.50;13.77;;;4.30;92.70;;;;;;5074125;28;20200;-85
2021/11/29 10:54:37;;;;;;;19.20;13.73;;;4.30;92.50;;;;;;5072946;28;20186;-86
2021/11/29 10:57:04;;;;;;;16.03;13.07;;;4.30;92.30;;;;;;5072918;28;20186;-88
2021/11/29 10:59:34;;;;;;;14.33;12.43;;;4.40;92.10;;;;;;5074384;28;20261;-86
2021/11/29 11:02:03;;;;;;;15.03;12.23;;;4.40;91.90;;;;;;5073904;28;20210;-86
2021/11/29 11:04:34;;;;;;;13.80;11.70;;;4.30;91.80;;;;;;5072695;28;20182;-87
2021/11/29 11:07:11;;;;;;;14.47;12.00;;;4.30;91.70;;;;;;5072655;28;20316;-86
2021/11/29 11:09:39;;;;;;;14.57;12.20;;;4.30;91.50;;;;;;5074668;28;20513;-86
2021/11/29 11:12:10;;;;;;;13.90;11.33;;;4.30;91.30;;;;;;5074389;28;20206;-86
2021/11/29 11:14:48;;;;;;;12.93;11.27;;;4.30;91.40;;;;;;5074378;28;20166;-86
2021/11/29 11:17:14;;;;;;;14.90;12.50;;;4.40;91.40;;;;;;5073693;28;20173;-87
2021/11/29 11:19:44;;;;;;;13.07;11.27;;;4.40;91.40;;;;;;5074278;28;20708;-86
2021/11/29 11:22:16;;;;;;;15.77;12.17;;;4.50;91.30;;;;;;5074256;28;20208;-86
2021/11/29 11:25:15;;;;;;;15.10;11.80;;;4.40;91.00;;;;;;5073013;28;20170;-86
2021/11/29 11:27:54;;;;;;;13.07;10.70;;;4.40;91.20;;;;;;5070232;28;20183;-86
2021/11/29 11:30:20;;;;;;;12.83;10.83;;;4.40;91.10;;;;;;5072542;28;20177;-85
2021/11/29 11:32:56;;;;;;;11.43;10.23;;;4.40;90.70;;;;;;5072143;28;20226;-85
2021/11/29 11:35:31;;;;;;;11.77;10.30;;;4.40;90.80;;;;;;5073664;28;20241;-86
2021/11/29 11:38:04;;;;;;;12.37;11.03;;;4.50;90.90;;;;;;5074058;28;20157;-85
2021/11/29 11:40:33;;;;;;;12.60;10.00;;;4.50;90.90;;;;;;5073437;28;20162;-85
2021/11/29 11:43:01;;;;;;;11.43;10.23;;;4.50;90.80;;;;;;5072218;28;20293;-85
2021/11/29 11:45:35;;;;;;;11.17;9.37;;;4.50;90.80;;;;;;5072619;28;20187;-87
2021/11/29 11:48:02;;;;;;;14.67;10.43;;;4.60;90.60;;;;;;5073852;28;20242;-86
2021/11/29 11:50:34;;;;;;;12.57;9.20;;;4.60;90.50;;;;;;5072241;28;20170;-86
2021/11/29 11:53:04;;;;;;;9.87;8.87;;;4.60;90.20;;;;;;5072121;28;20701;-86
2021/11/29 11:55:33;;;;;;;10.60;9.50;;;4.50;90.40;;;;;;5072178;28;20174;-87
2021/11/29 11:58:10;;;;;;;11.73;9.43;;;4.60;90.30;;;;;;5072039;28;20189;-86
2021/11/29 12:00:42;;;;;;;10.50;9.17;;;4.70;90.30;;;;;;5073189;28;20166;-85
2021/11/29 12:03:13;;;;;;;9.60;8.60;;;4.70;90.30;;;;;;5071941;28;20690;-85
2021/11/29 12:05:53;;;;;;;11.33;9.00;;;4.80;90.60;;;;;;5073109;28;20651;-85
2021/11/29 12:08:47;;;;;;;10.03;8.43;;;4.80;90.40;;;;;;5072582;28;20542;-85
2021/11/29 12:11:26;;;;;;;11.37;8.43;;;4.80;90.20;;;;;;5071994;28;20204;-85
2021/11/29 12:14:07;;;;;;;9.53;8.53;;;4.80;90.30;;;;;;5073279;28;20166;-85
2021/11/29 12:16:59;;;;;;;9.87;8.87;;;4.90;90.60;;;;;;5072131;28;20291;-85
2021/11/29 12:19:25;;;;;;;9.03;8.03;;;4.90;90.60;;;;;;5071934;28;20202;-85
2021/11/29 12:21:55;;;;;;;8.57;7.63;;;5.00;90.50;;;;;;5071766;28;20728;-85
2021/11/29 12:24:27;;;;;;;8.43;7.60;;;4.90;90.30;;;;;;5073245;28;20160;-85
2021/11/29 12:26:57;;;;;;;8.93;7.10;;;5.00;90.40;;;;;;5073236;28;20224;-85
2021/11/29 12:29:22;;;;;;;7.30;6.60;;;4.90;90.10;;;;;;5073072;28;20164;-85
2021/11/29 12:31:50;;;;;;;9.60;7.33;;;4.90;90.20;;;;;;5073039;28;20191;-85
2021/11/29 12:34:35;;;;;;;8.23;7.10;;;4.90;90.20;;;;;;5073011;28;20643;-85
2021/11/29 12:37:01;;;;;;;6.70;6.00;;;4.90;90.50;;;;;;5072883;28;20650;-85
2021/11/29 12:39:45;;;;;;;7.67;6.27;;;4.90;90.00;;;;;;5071725;28;20258;-85
2021/11/29 12:42:22;;;;;;;6.30;5.70;;;4.80;90.00;;;;;;5071431;28;20301;-85